sensor_id;sensor_type;location;lat;lon;timestamp;pressure;altitude;pressure_sealevel;temperature;humidity
65557;BME280;52200;53.490;14.376;2023-03-01T00:01:12;103047.50;;;-4.25;83.73
65557;BME280;52200;53.490;14.376;2023-03-01T00:03:38;103049.47;;;-4.21;83.55
65557;BME280;52200;53.490;14.376;2023-03-01T00:06:04;103041.03;;;-4.23;83.81
65557;BME280;52200;53.490;14.376;2023-03-01T00:08:30;103037.81;;;-4.22;83.52
65557;BME280;52200;53.490;14.376;2023-03-01T00:11:17;103026.78;;;-4.25;83.47
65557;BME280;52200;53.490;14.376;2023-03-01T00:13:44;103028.50;;;-4.36;83.60
65557;BME280;52200;53.490;14.376;2023-03-01T00:16:13;103020.06;;;-4.38;83.97
65557;BME280;52200;53.490;14.376;2023-03-01T00:18:39;103025.56;;;-4.42;84.24
65557;BME280;52200;53.490;14.376;2023-03-01T00:21:05;103026.31;;;-4.43;84.18
65557;BME280;52200;53.490;14.376;2023-03-01T00:23:33;103018.47;;;-4.38;84.35
65557;BME280;52200;53.490;14.376;2023-03-01T00:25:59;103018.66;;;-4.80;84.65
65557;BME280;52200;53.490;14.376;2023-03-01T00:28:24;103014.31;;;-4.61;84.92
65557;BME280;52200;53.490;14.376;2023-03-01T00:30:50;103014.69;;;-4.78;85.39
65557;BME280;52200;53.490;14.376;2023-03-01T00:33:15;103012.31;;;-5.11;86.10
65557;BME280;52200;53.490;14.376;2023-03-01T00:35:41;103016.19;;;-4.80;86.17
65557;BME280;52200;53.490;14.376;2023-03-01T00:38:06;103015.72;;;-4.87;86.48
65557;BME280;52200;53.490;14.376;2023-03-01T00:40:34;103016.81;;;-4.83;86.66
65557;BME280;52200;53.490;14.376;2023-03-01T00:43:00;103024.75;;;-4.99;86.46
65557;BME280;52200;53.490;14.376;2023-03-01T00:45:26;103026.06;;;-5.37;88.17
65557;BME280;52200;53.490;14.376;2023-03-01T00:47:52;103020.38;;;-5.36;89.18
65557;BME280;52200;53.490;14.376;2023-03-01T00:50:18;103017.13;;;-4.90;89.09
65557;BME280;52200;53.490;14.376;2023-03-01T00:52:43;103024.59;;;-4.78;87.97
65557;BME280;52200;53.490;14.376;2023-03-01T00:55:09;103020.63;;;-4.76;87.60
65557;BME280;52200;53.490;14.376;2023-03-01T00:57:35;103028.53;;;-4.70;87.38
65557;BME280;52200;53.490;14.376;2023-03-01T01:00:00;103018.25;;;-4.75;87.11
65557;BME280;52200;53.490;14.376;2023-03-01T01:02:26;103012.25;;;-4.66;86.94
65557;BME280;52200;53.490;14.376;2023-03-01T01:04:51;103019.34;;;-4.71;86.21
65557;BME280;52200;53.490;14.376;2023-03-01T01:07:17;103017.91;;;-4.79;86.54
65557;BME280;52200;53.490;14.376;2023-03-01T01:09:45;103021.69;;;-4.84;87.05
65557;BME280;52200;53.490;14.376;2023-03-01T01:12:11;103022.72;;;-5.15;87.58
65557;BME280;52200;53.490;14.376;2023-03-01T01:14:36;103025.38;;;-5.02;87.92
65557;BME280;52200;53.490;14.376;2023-03-01T01:17:01;103027.00;;;-5.02;87.84
65557;BME280;52200;53.490;14.376;2023-03-01T01:19:27;103011.00;;;-4.83;88.15
65557;BME280;52200;53.490;14.376;2023-03-01T01:21:53;103015.59;;;-4.66;87.64
65557;BME280;52200;53.490;14.376;2023-03-01T01:24:19;103023.47;;;-4.60;86.36
65557;BME280;52200;53.490;14.376;2023-03-01T01:26:45;103020.25;;;-4.59;86.23
65557;BME280;52200;53.490;14.376;2023-03-01T01:29:11;103010.34;;;-4.59;86.09
65557;BME280;52200;53.490;14.376;2023-03-01T01:31:39;103013.03;;;-4.56;85.57
65557;BME280;52200;53.490;14.376;2023-03-01T01:34:06;103017.13;;;-4.56;85.44
65557;BME280;52200;53.490;14.376;2023-03-01T01:36:33;103020.16;;;-4.48;85.34
65557;BME280;52200;53.490;14.376;2023-03-01T01:38:58;103021.31;;;-4.67;85.10
65557;BME280;52200;53.490;14.376;2023-03-01T01:41:25;103029.53;;;-4.56;85.43
65557;BME280;52200;53.490;14.376;2023-03-01T01:46:45;103017.31;;;-4.65;86.01
65557;BME280;52200;53.490;14.376;2023-03-01T01:51:45;103006.22;;;-4.58;85.08
65557;BME280;52200;53.490;14.376;2023-03-01T01:54:41;103013.56;;;-4.60;85.17
65557;BME280;52200;53.490;14.376;2023-03-01T01:57:13;103007.63;;;-4.62;85.10
65557;BME280;52200;53.490;14.376;2023-03-01T01:59:42;103000.72;;;-4.66;85.07
65557;BME280;52200;53.490;14.376;2023-03-01T02:02:08;102995.34;;;-4.60;84.98
65557;BME280;52200;53.490;14.376;2023-03-01T02:04:34;102990.38;;;-4.60;84.90
65557;BME280;52200;53.490;14.376;2023-03-01T02:07:13;102990.50;;;-4.59;85.00
65557;BME280;52200;53.490;14.376;2023-03-01T02:09:41;102993.81;;;-4.58;85.06
65557;BME280;52200;53.490;14.376;2023-03-01T02:12:09;102988.00;;;-4.59;84.77
65557;BME280;52200;53.490;14.376;2023-03-01T02:14:34;102988.06;;;-4.69;84.97
65557;BME280;52200;53.490;14.376;2023-03-01T02:17:00;102980.13;;;-4.65;84.57
65557;BME280;52200;53.490;14.376;2023-03-01T02:19:56;102978.94;;;-4.70;84.23
65557;BME280;52200;53.490;14.376;2023-03-01T02:22:25;102971.16;;;-4.63;84.40
65557;BME280;52200;53.490;14.376;2023-03-01T02:27:40;102962.84;;;-4.75;84.61
65557;BME280;52200;53.490;14.376;2023-03-01T02:30:07;102962.28;;;-4.95;85.36
65557;BME280;52200;53.490;14.376;2023-03-01T02:32:33;102955.41;;;-4.75;84.96
65557;BME280;52200;53.490;14.376;2023-03-01T02:34:59;102954.34;;;-4.67;84.74
65557;BME280;52200;53.490;14.376;2023-03-01T02:37:26;102947.97;;;-4.75;84.37
65557;BME280;52200;53.490;14.376;2023-03-01T02:40:03;102947.66;;;-4.80;84.42
65557;BME280;52200;53.490;14.376;2023-03-01T02:42:35;102948.19;;;-4.72;84.75
65557;BME280;52200;53.490;14.376;2023-03-01T02:45:02;102946.91;;;-4.67;83.92
65557;BME280;52200;53.490;14.376;2023-03-01T02:47:28;102941.16;;;-4.78;84.10
65557;BME280;52200;53.490;14.376;2023-03-01T02:49:53;102937.09;;;-4.77;84.36
65557;BME280;52200;53.490;14.376;2023-03-01T02:52:28;102936.00;;;-4.81;84.42
65557;BME280;52200;53.490;14.376;2023-03-01T02:55:08;102936.09;;;-4.79;84.58
65557;BME280;52200;53.490;14.376;2023-03-01T02:57:37;102928.91;;;-5.10;85.07
65557;BME280;52200;53.490;14.376;2023-03-01T03:00:11;102926.72;;;-5.18;85.65
65557;BME280;52200;53.490;14.376;2023-03-01T03:02:48;102919.09;;;-5.09;85.55
65557;BME280;52200;53.490;14.376;2023-03-01T03:05:24;102930.34;;;-4.90;85.41
65557;BME280;52200;53.490;14.376;2023-03-01T03:07:50;102933.53;;;-4.81;85.21
65557;BME280;52200;53.490;14.376;2023-03-01T03:10:27;102940.66;;;-4.74;85.65
65557;BME280;52200;53.490;14.376;2023-03-01T03:12:58;102933.19;;;-4.86;84.86
65557;BME280;52200;53.490;14.376;2023-03-01T03:15:25;102924.06;;;-5.43;87.05
65557;BME280;52200;53.490;14.376;2023-03-01T03:17:52;102920.94;;;-5.06;86.30
65557;BME280;52200;53.490;14.376;2023-03-01T03:20:20;102919.34;;;-4.94;86.38
65557;BME280;52200;53.490;14.376;2023-03-01T03:22:48;102919.78;;;-4.88;86.17
65557;BME280;52200;53.490;14.376;2023-03-01T03:25:15;102930.59;;;-4.75;85.42
65557;BME280;52200;53.490;14.376;2023-03-01T03:27:42;102923.94;;;-5.10;85.29
65557;BME280;52200;53.490;14.376;2023-03-01T03:30:11;102930.09;;;-5.05;86.29
65557;BME280;52200;53.490;14.376;2023-03-01T03:32:42;102918.00;;;-5.12;86.18
65557;BME280;52200;53.490;14.376;2023-03-01T03:35:15;102925.63;;;-4.87;85.49
65557;BME280;52200;53.490;14.376;2023-03-01T03:37:41;102925.84;;;-4.84;85.42
65557;BME280;52200;53.490;14.376;2023-03-01T03:40:28;102921.09;;;-4.93;84.76
65557;BME280;52200;53.490;14.376;2023-03-01T03:42:54;102922.19;;;-4.89;84.90
65557;BME280;52200;53.490;14.376;2023-03-01T03:45:20;102927.91;;;-4.78;85.04
65557;BME280;52200;53.490;14.376;2023-03-01T03:47:45;102921.22;;;-4.91;84.99
65557;BME280;52200;53.490;14.376;2023-03-01T03:50:12;102915.06;;;-4.84;85.23
65557;BME280;52200;53.490;14.376;2023-03-01T03:52:38;102911.16;;;-4.93;85.25
65557;BME280;52200;53.490;14.376;2023-03-01T03:55:05;102907.38;;;-5.34;86.79
65557;BME280;52200;53.490;14.376;2023-03-01T03:57:37;102905.47;;;-5.04;86.44
65557;BME280;52200;53.490;14.376;2023-03-01T04:00:04;102910.53;;;-5.02;86.46
65557;BME280;52200;53.490;14.376;2023-03-01T04:02:30;102901.94;;;-4.83;85.48
65557;BME280;52200;53.490;14.376;2023-03-01T04:04:56;102907.19;;;-4.91;85.15
65557;BME280;52200;53.490;14.376;2023-03-01T04:07:21;102900.59;;;-5.02;85.79
65557;BME280;52200;53.490;14.376;2023-03-01T04:09:47;102907.16;;;-5.14;86.23
65557;BME280;52200;53.490;14.376;2023-03-01T04:12:12;102902.53;;;-4.98;86.33
65557;BME280;52200;53.490;14.376;2023-03-01T04:14:37;102898.88;;;-5.03;85.65
65557;BME280;52200;53.490;14.376;2023-03-01T04:17:03;102878.75;;;-4.96;85.43
65557;BME280;52200;53.490;14.376;2023-03-01T04:19:33;102879.53;;;-4.85;85.55
65557;BME280;52200;53.490;14.376;2023-03-01T04:22:02;102887.50;;;-4.77;85.05
65557;BME280;52200;53.490;14.376;2023-03-01T04:24:35;102892.97;;;-5.27;86.45
65557;BME280;52200;53.490;14.376;2023-03-01T04:27:00;102887.38;;;-5.25;86.78
65557;BME280;52200;53.490;14.376;2023-03-01T04:29:25;102890.00;;;-5.11;87.51
65557;BME280;52200;53.490;14.376;2023-03-01T04:31:51;102877.31;;;-5.04;86.39
65557;BME280;52200;53.490;14.376;2023-03-01T04:34:16;102884.69;;;-4.82;85.68
65557;BME280;52200;53.490;14.376;2023-03-01T04:36:42;102882.53;;;-4.77;85.55
65557;BME280;52200;53.490;14.376;2023-03-01T04:39:07;102875.41;;;-4.84;85.72
65557;BME280;52200;53.490;14.376;2023-03-01T04:41:38;102878.88;;;-4.82;85.70
65557;BME280;52200;53.490;14.376;2023-03-01T04:44:04;102881.91;;;-4.75;85.90
65557;BME280;52200;53.490;14.376;2023-03-01T04:46:30;102875.78;;;-5.26;86.39
65557;BME280;52200;53.490;14.376;2023-03-01T04:48:55;102868.81;;;-4.96;86.77
65557;BME280;52200;53.490;14.376;2023-03-01T04:51:21;102877.72;;;-5.22;86.94
65557;BME280;52200;53.490;14.376;2023-03-01T04:53:46;102876.72;;;-5.24;87.43
65557;BME280;52200;53.490;14.376;2023-03-01T04:56:12;102868.00;;;-5.30;88.61
65557;BME280;52200;53.490;14.376;2023-03-01T04:58:41;102880.13;;;-4.99;88.37
65557;BME280;52200;53.490;14.376;2023-03-01T05:01:16;102871.75;;;-4.78;87.24
65557;BME280;52200;53.490;14.376;2023-03-01T05:03:43;102876.16;;;-4.86;86.48
65557;BME280;52200;53.490;14.376;2023-03-01T05:06:09;102878.22;;;-4.68;86.20
65557;BME280;52200;53.490;14.376;2023-03-01T05:08:37;102879.94;;;-4.67;86.24
65557;BME280;52200;53.490;14.376;2023-03-01T05:11:03;102880.38;;;-4.61;85.65
65557;BME280;52200;53.490;14.376;2023-03-01T05:13:28;102877.25;;;-4.58;85.05
65557;BME280;52200;53.490;14.376;2023-03-01T05:15:55;102883.84;;;-4.59;85.29
65557;BME280;52200;53.490;14.376;2023-03-01T05:18:21;102882.13;;;-4.60;85.64
65557;BME280;52200;53.490;14.376;2023-03-01T05:20:46;102882.66;;;-4.64;85.42
65557;BME280;52200;53.490;14.376;2023-03-01T05:23:12;102890.09;;;-4.64;85.65
65557;BME280;52200;53.490;14.376;2023-03-01T05:25:38;102895.00;;;-4.88;86.08
65557;BME280;52200;53.490;14.376;2023-03-01T05:28:06;102899.75;;;-4.91;86.26
65557;BME280;52200;53.490;14.376;2023-03-01T05:30:33;102895.69;;;-4.78;86.25
65557;BME280;52200;53.490;14.376;2023-03-01T05:32:59;102895.34;;;-4.95;86.08
65557;BME280;52200;53.490;14.376;2023-03-01T05:35:24;102892.94;;;-5.05;86.56
65557;BME280;52200;53.490;14.376;2023-03-01T05:37:50;102898.88;;;-5.03;86.48
65557;BME280;52200;53.490;14.376;2023-03-01T05:40:18;102898.91;;;-4.91;86.83
65557;BME280;52200;53.490;14.376;2023-03-01T05:42:45;102898.25;;;-4.77;86.05
65557;BME280;52200;53.490;14.376;2023-03-01T05:45:12;102900.59;;;-5.02;86.46
65557;BME280;52200;53.490;14.376;2023-03-01T05:47:39;102895.00;;;-4.88;87.07
65557;BME280;52200;53.490;14.376;2023-03-01T05:50:10;102897.84;;;-4.71;86.48
65557;BME280;52200;53.490;14.376;2023-03-01T05:52:35;102881.88;;;-4.63;85.50
65557;BME280;52200;53.490;14.376;2023-03-01T05:55:01;102874.69;;;-4.60;85.39
65557;BME280;52200;53.490;14.376;2023-03-01T05:57:28;102880.34;;;-5.08;86.75
65557;BME280;52200;53.490;14.376;2023-03-01T05:59:53;102868.38;;;-5.02;87.38
65557;BME280;52200;53.490;14.376;2023-03-01T06:02:19;102875.09;;;-4.77;86.82
65557;BME280;52200;53.490;14.376;2023-03-01T06:04:45;102869.91;;;-4.92;86.57
65557;BME280;52200;53.490;14.376;2023-03-01T06:07:10;102878.75;;;-4.84;87.06
65557;BME280;52200;53.490;14.376;2023-03-01T06:09:36;102883.50;;;-4.75;86.86
65557;BME280;52200;53.490;14.376;2023-03-01T06:12:01;102880.28;;;-4.50;86.84
65557;BME280;52200;53.490;14.376;2023-03-01T06:14:27;102877.69;;;-4.40;86.00
65557;BME280;52200;53.490;14.376;2023-03-01T06:16:52;102880.59;;;-4.34;85.91
65557;BME280;52200;53.490;14.376;2023-03-01T06:19:17;102879.53;;;-4.61;86.56
65557;BME280;52200;53.490;14.376;2023-03-01T06:21:43;102874.97;;;-4.43;86.26
65557;BME280;52200;53.490;14.376;2023-03-01T06:24:08;102887.94;;;-4.35;86.76
65557;BME280;52200;53.490;14.376;2023-03-01T06:26:34;102880.72;;;-4.21;86.07
65557;BME280;52200;53.490;14.376;2023-03-01T06:28:59;102887.50;;;-4.18;85.86
65557;BME280;52200;53.490;14.376;2023-03-01T06:31:25;102880.72;;;-4.21;86.78
65557;BME280;52200;53.490;14.376;2023-03-01T06:33:50;102883.13;;;-3.97;85.74
65557;BME280;52200;53.490;14.376;2023-03-01T06:36:15;102888.19;;;-3.83;86.10
65557;BME280;52200;53.490;14.376;2023-03-01T06:38:44;102882.16;;;-3.87;85.97
65557;BME280;52200;53.490;14.376;2023-03-01T06:41:09;102878.31;;;-3.70;85.40
65557;BME280;52200;53.490;14.376;2023-03-01T06:43:34;102880.50;;;-3.86;86.19
65557;BME280;52200;53.490;14.376;2023-03-01T06:46:00;102880.66;;;-3.60;86.35
65557;BME280;52200;53.490;14.376;2023-03-01T06:48:26;102873.69;;;-3.52;85.89
65557;BME280;52200;53.490;14.376;2023-03-01T06:50:51;102881.25;;;-3.50;85.36
65557;BME280;52200;53.490;14.376;2023-03-01T06:53:16;102873.78;;;-3.50;85.81
65557;BME280;52200;53.490;14.376;2023-03-01T06:55:42;102875.97;;;-3.30;86.02
65557;BME280;52200;53.490;14.376;2023-03-01T06:58:08;102866.16;;;-3.15;85.55
65557;BME280;52200;53.490;14.376;2023-03-01T07:00:34;102878.63;;;-3.40;86.66
65557;BME280;52200;53.490;14.376;2023-03-01T07:03:01;102881.03;;;-3.03;86.23
65557;BME280;52200;53.490;14.376;2023-03-01T07:05:28;102879.75;;;-3.10;86.56
65557;BME280;52200;53.490;14.376;2023-03-01T07:07:54;102876.84;;;-2.77;86.69
65557;BME280;52200;53.490;14.376;2023-03-01T07:10:20;102882.66;;;-2.90;86.82
65557;BME280;52200;53.490;14.376;2023-03-01T07:12:45;102874.63;;;-2.86;87.83
65557;BME280;52200;53.490;14.376;2023-03-01T07:15:11;102882.69;;;-2.77;88.78
65557;BME280;52200;53.490;14.376;2023-03-01T07:17:37;102871.28;;;-2.33;87.51
65557;BME280;52200;53.490;14.376;2023-03-01T07:20:02;102876.44;;;-2.16;87.26
65557;BME280;52200;53.490;14.376;2023-03-01T07:22:28;102873.38;;;-2.39;87.51
65557;BME280;52200;53.490;14.376;2023-03-01T07:24:53;102879.38;;;-2.08;87.72
65557;BME280;52200;53.490;14.376;2023-03-01T07:27:18;102885.16;;;-1.81;87.44
65557;BME280;52200;53.490;14.376;2023-03-01T07:29:44;102889.00;;;-1.58;86.39
65557;BME280;52200;53.490;14.376;2023-03-01T07:32:09;102885.94;;;-1.39;86.11
65557;BME280;52200;53.490;14.376;2023-03-01T07:34:35;102889.25;;;-1.25;85.33
65557;BME280;52200;53.490;14.376;2023-03-01T07:37:01;102894.06;;;-1.13;85.23
65557;BME280;52200;53.490;14.376;2023-03-01T07:39:26;102889.69;;;-1.02;85.47
65557;BME280;52200;53.490;14.376;2023-03-01T07:41:51;102894.88;;;-0.84;85.37
65557;BME280;52200;53.490;14.376;2023-03-01T07:44:17;102893.72;;;-0.74;84.75
65557;BME280;52200;53.490;14.376;2023-03-01T07:46:43;102884.31;;;-0.63;84.79
65557;BME280;52200;53.490;14.376;2023-03-01T07:49:10;102889.41;;;-0.47;84.62
65557;BME280;52200;53.490;14.376;2023-03-01T07:51:35;102887.44;;;-0.36;83.55
65557;BME280;52200;53.490;14.376;2023-03-01T07:54:00;102883.03;;;-0.25;84.10
65557;BME280;52200;53.490;14.376;2023-03-01T07:56:26;102886.13;;;-0.14;83.64
65557;BME280;52200;53.490;14.376;2023-03-01T07:58:51;102884.97;;;-0.05;83.68
65557;BME280;52200;53.490;14.376;2023-03-01T08:01:19;102881.44;;;0.08;82.98
65557;BME280;52200;53.490;14.376;2023-03-01T08:03:45;102880.13;;;0.15;83.60
65557;BME280;52200;53.490;14.376;2023-03-01T08:06:13;102876.75;;;0.14;83.09
65557;BME280;52200;53.490;14.376;2023-03-01T08:08:39;102878.66;;;0.19;83.85
65557;BME280;52200;53.490;14.376;2023-03-01T08:11:06;102882.31;;;0.25;84.65
65557;BME280;52200;53.490;14.376;2023-03-01T08:13:32;102878.59;;;0.34;84.28
65557;BME280;52200;53.490;14.376;2023-03-01T08:16:07;102874.56;;;0.54;83.74
65557;BME280;52200;53.490;14.376;2023-03-01T08:18:32;102873.78;;;0.55;83.37
65557;BME280;52200;53.490;14.376;2023-03-01T08:21:17;102873.50;;;0.83;83.20
65557;BME280;52200;53.490;14.376;2023-03-01T08:23:43;102862.59;;;0.99;81.69
65557;BME280;52200;53.490;14.376;2023-03-01T08:26:16;102850.72;;;1.13;81.47
65557;BME280;52200;53.490;14.376;2023-03-01T08:28:43;102844.84;;;1.31;80.86
65557;BME280;52200;53.490;14.376;2023-03-01T08:31:18;102859.00;;;1.48;80.20
65557;BME280;52200;53.490;14.376;2023-03-01T08:33:45;102852.31;;;1.67;79.40
65557;BME280;52200;53.490;14.376;2023-03-01T08:36:16;102851.16;;;1.78;79.15
65557;BME280;52200;53.490;14.376;2023-03-01T08:38:42;102853.81;;;2.01;77.65
65557;BME280;52200;53.490;14.376;2023-03-01T08:41:07;102859.47;;;2.16;77.63
65557;BME280;52200;53.490;14.376;2023-03-01T08:43:32;102858.88;;;2.41;76.59
65557;BME280;52200;53.490;14.376;2023-03-01T08:45:58;102856.28;;;2.40;76.60
65557;BME280;52200;53.490;14.376;2023-03-01T08:48:23;102852.28;;;2.65;75.57
65557;BME280;52200;53.490;14.376;2023-03-01T08:50:49;102861.25;;;2.79;74.54
65557;BME280;52200;53.490;14.376;2023-03-01T08:53:14;102860.94;;;2.71;74.31
65557;BME280;52200;53.490;14.376;2023-03-01T08:55:39;102858.06;;;2.83;74.92
65557;BME280;52200;53.490;14.376;2023-03-01T08:58:05;102861.25;;;3.00;73.61
65557;BME280;52200;53.490;14.376;2023-03-01T09:00:30;102847.53;;;3.13;73.25
65557;BME280;52200;53.490;14.376;2023-03-01T09:02:55;102849.13;;;3.34;73.10
65557;BME280;52200;53.490;14.376;2023-03-01T09:05:21;102848.28;;;3.56;72.08
65557;BME280;52200;53.490;14.376;2023-03-01T09:07:46;102844.88;;;3.78;71.63
65557;BME280;52200;53.490;14.376;2023-03-01T09:10:11;102844.31;;;3.85;71.08
65557;BME280;52200;53.490;14.376;2023-03-01T09:12:37;102848.53;;;3.86;69.93
65557;BME280;52200;53.490;14.376;2023-03-01T09:15:02;102845.31;;;3.91;69.06
65557;BME280;52200;53.490;14.376;2023-03-01T09:17:28;102844.88;;;3.78;68.62
65557;BME280;52200;53.490;14.376;2023-03-01T09:19:53;102841.53;;;4.02;68.48
65557;BME280;52200;53.490;14.376;2023-03-01T09:22:19;102844.25;;;4.08;68.76
65557;BME280;52200;53.490;14.376;2023-03-01T09:24:44;102838.47;;;4.11;67.92
65557;BME280;52200;53.490;14.376;2023-03-01T09:27:09;102837.19;;;3.98;67.89
65557;BME280;52200;53.490;14.376;2023-03-01T09:29:36;102834.72;;;3.99;67.94
65557;BME280;52200;53.490;14.376;2023-03-01T09:32:02;102841.78;;;3.85;66.90
65557;BME280;52200;53.490;14.376;2023-03-01T09:34:27;102838.66;;;3.91;66.81
65557;BME280;52200;53.490;14.376;2023-03-01T09:36:52;102841.06;;;4.12;66.78
65557;BME280;52200;53.490;14.376;2023-03-01T09:39:18;102849.75;;;4.46;66.78
65557;BME280;52200;53.490;14.376;2023-03-01T09:42:00;102843.78;;;4.70;65.63
65557;BME280;52200;53.490;14.376;2023-03-01T09:46:59;102854.88;;;4.75;65.41
65557;BME280;52200;53.490;14.376;2023-03-01T09:49:27;102843.91;;;5.00;64.68
65557;BME280;52200;53.490;14.376;2023-03-01T09:51:59;102847.75;;;4.89;64.84
65557;BME280;52200;53.490;14.376;2023-03-01T09:54:26;102848.81;;;4.70;64.80
65557;BME280;52200;53.490;14.376;2023-03-01T09:57:13;102843.50;;;4.87;65.69
65557;BME280;52200;53.490;14.376;2023-03-01T10:04:49;102844.19;;;5.10;64.28
65557;BME280;52200;53.490;14.376;2023-03-01T10:07:47;102847.38;;;5.04;64.32
65557;BME280;52200;53.490;14.376;2023-03-01T10:10:26;102837.13;;;4.98;64.81
65557;BME280;52200;53.490;14.376;2023-03-01T10:12:53;102835.94;;;4.87;65.52
65557;BME280;52200;53.490;14.376;2023-03-01T10:15:25;102836.22;;;4.70;65.91
65557;BME280;52200;53.490;14.376;2023-03-01T10:18:03;102831.16;;;4.96;65.71
65557;BME280;52200;53.490;14.376;2023-03-01T10:23:08;102834.16;;;5.11;65.08
65557;BME280;52200;53.490;14.376;2023-03-01T10:30:49;102829.03;;;5.66;65.00
65557;BME280;52200;53.490;14.376;2023-03-01T10:33:21;102819.94;;;5.73;64.63
65557;BME280;52200;53.490;14.376;2023-03-01T10:35:48;102814.72;;;5.97;64.66
65557;BME280;52200;53.490;14.376;2023-03-01T10:38:15;102812.84;;;5.90;63.79
65557;BME280;52200;53.490;14.376;2023-03-01T10:40:57;102810.97;;;5.82;64.18
65557;BME280;52200;53.490;14.376;2023-03-01T10:43:25;102805.84;;;5.79;64.73
65557;BME280;52200;53.490;14.376;2023-03-01T10:45:51;102806.53;;;5.74;65.11
65557;BME280;52200;53.490;14.376;2023-03-01T10:48:19;102807.47;;;5.77;65.49
65557;BME280;52200;53.490;14.376;2023-03-01T10:50:51;102802.34;;;6.05;65.28
65557;BME280;52200;53.490;14.376;2023-03-01T10:53:35;102807.31;;;6.02;65.09
65557;BME280;52200;53.490;14.376;2023-03-01T10:56:02;102811.38;;;5.98;65.08
65557;BME280;52200;53.490;14.376;2023-03-01T10:58:29;102801.25;;;6.28;64.61
65557;BME280;52200;53.490;14.376;2023-03-01T11:01:01;102800.91;;;6.15;65.03
65557;BME280;52200;53.490;14.376;2023-03-01T11:03:36;102804.28;;;6.49;63.85
65557;BME280;52200;53.490;14.376;2023-03-01T11:08:45;102807.97;;;5.96;65.58
65557;BME280;52200;53.490;14.376;2023-03-01T11:11:18;102809.88;;;6.03;66.20
65557;BME280;52200;53.490;14.376;2023-03-01T11:14:17;102802.50;;;6.11;65.24
65557;BME280;52200;53.490;14.376;2023-03-01T11:16:45;102796.50;;;6.07;65.87
65557;BME280;52200;53.490;14.376;2023-03-01T11:22:19;102799.06;;;6.42;64.99
65557;BME280;52200;53.490;14.376;2023-03-01T11:24:48;102794.50;;;6.27;65.07
65557;BME280;52200;53.490;14.376;2023-03-01T11:27:38;102793.72;;;6.30;65.29
65557;BME280;52200;53.490;14.376;2023-03-01T11:32:38;102799.44;;;6.23;64.98
65557;BME280;52200;53.490;14.376;2023-03-01T11:35:17;102795.13;;;6.54;64.80
65557;BME280;52200;53.490;14.376;2023-03-01T11:43:19;102782.72;;;6.63;64.20
65557;BME280;52200;53.490;14.376;2023-03-01T11:51:02;102778.81;;;7.16;64.19
65557;BME280;52200;53.490;14.376;2023-03-01T11:53:58;102773.69;;;7.13;63.46
65557;BME280;52200;53.490;14.376;2023-03-01T11:56:32;102767.25;;;6.87;64.65
65557;BME280;52200;53.490;14.376;2023-03-01T12:04:23;102762.91;;;6.82;65.53
65557;BME280;52200;53.490;14.376;2023-03-01T12:07:01;102762.44;;;6.60;64.73
65557;BME280;52200;53.490;14.376;2023-03-01T12:09:44;102749.47;;;6.83;65.44
65557;BME280;52200;53.490;14.376;2023-03-01T12:12:33;102746.63;;;7.07;64.69
65557;BME280;52200;53.490;14.376;2023-03-01T12:18:57;102747.75;;;6.82;63.78
65557;BME280;52200;53.490;14.376;2023-03-01T12:26:34;102743.56;;;7.22;63.23
65557;BME280;52200;53.490;14.376;2023-03-01T12:34:30;102729.28;;;7.24;63.53
65557;BME280;52200;53.490;14.376;2023-03-01T12:40:17;102727.50;;;7.20;64.15
65557;BME280;52200;53.490;14.376;2023-03-01T12:46:04;102725.22;;;7.32;64.13
65557;BME280;52200;53.490;14.376;2023-03-01T12:48:51;102720.34;;;7.41;64.06
65557;BME280;52200;53.490;14.376;2023-03-01T12:51:24;102720.22;;;7.35;63.80
65557;BME280;52200;53.490;14.376;2023-03-01T12:53:53;102720.38;;;7.45;63.28
65557;BME280;52200;53.490;14.376;2023-03-01T12:56:26;102713.34;;;7.28;64.49
65557;BME280;52200;53.490;14.376;2023-03-01T13:01:45;102716.16;;;7.43;64.61
65557;BME280;52200;53.490;14.376;2023-03-01T13:11:56;102697.19;;;7.67;64.55
65557;BME280;52200;53.490;14.376;2023-03-01T13:16:48;102695.56;;;7.25;65.30
65557;BME280;52200;53.490;14.376;2023-03-01T13:19:24;102693.28;;;7.37;66.00
65557;BME280;52200;53.490;14.376;2023-03-01T13:21:52;102687.38;;;7.37;65.54
65557;BME280;52200;53.490;14.376;2023-03-01T13:24:33;102680.31;;;7.66;65.45
65557;BME280;52200;53.490;14.376;2023-03-01T13:29:52;102675.66;;;7.40;66.04
65557;BME280;52200;53.490;14.376;2023-03-01T13:34:58;102679.13;;;7.47;66.07
65557;BME280;52200;53.490;14.376;2023-03-01T13:37:28;102670.94;;;7.61;65.76
65557;BME280;52200;53.490;14.376;2023-03-01T13:39:55;102671.63;;;7.52;66.65
65557;BME280;52200;53.490;14.376;2023-03-01T13:42:42;102662.44;;;7.58;66.40
65557;BME280;52200;53.490;14.376;2023-03-01T13:45:21;102669.81;;;7.45;66.52
65557;BME280;52200;53.490;14.376;2023-03-01T13:48:00;102665.88;;;7.62;66.73
65557;BME280;52200;53.490;14.376;2023-03-01T13:50:33;102661.69;;;7.61;66.15
65557;BME280;52200;53.490;14.376;2023-03-01T13:53:04;102665.56;;;7.43;66.51
65557;BME280;52200;53.490;14.376;2023-03-01T13:55:44;102658.09;;;7.50;66.30
65557;BME280;52200;53.490;14.376;2023-03-01T14:00:46;102650.06;;;7.72;65.82
65557;BME280;52200;53.490;14.376;2023-03-01T14:03:18;102648.56;;;7.84;65.04
65557;BME280;52200;53.490;14.376;2023-03-01T14:06:00;102645.31;;;7.93;65.64
65557;BME280;52200;53.490;14.376;2023-03-01T14:08:28;102647.59;;;7.77;65.74
65557;BME280;52200;53.490;14.376;2023-03-01T14:13:41;102650.00;;;7.69;64.79
65557;BME280;52200;53.490;14.376;2023-03-01T14:16:37;102645.25;;;7.89;63.71
65557;BME280;52200;53.490;14.376;2023-03-01T14:19:14;102639.50;;;7.98;62.47
65557;BME280;52200;53.490;14.376;2023-03-01T14:21:41;102639.53;;;8.03;61.97
65557;BME280;52200;53.490;14.376;2023-03-01T14:24:17;102638.25;;;7.74;61.99